الصفحة الرئيسية
METAR-TAF:

METAR-TAF

مطار :

إل سنترو, كاليفورنيا, الولايات المتحدة

دائرة عرض: 32-49-30N, خط طول: 115-39-38W, ارتفاع: 13 متر

مراقبة الطقس الحالي

تاريخ ووقت الإصدار 26 دقيقة قبل الساعة 13:56UTC
ريح 7 عقدة من الغرب
درجة الحرارة 7°درجة مئوية
الرطوبة 70%
ضغط 1025 hPa
الرؤية: 14.5 كم
غيوم قليلة على ارتفاع 25000 قدم

METAR: KNJK 131356Z 27007KT 9SM FEW250 07/02 A3026 RMK AO2 SLP261 T00720022 $

زمن: 06:22 (14:22 UTC)

توقعات

التوقعات صالحة من13 الساعة 07 UTC إلى 14 الساعة 07 UTC
ريح 6 عقدةمن اتجاهات متغيرة
الرؤية: 1314 متر
سماء صافية

TAF: KNJK 1307/1407 VRB06KT 9999 SKC QNH3010INS AUTOMATED SENSOR METWATCH 1307 TIL 1314 T06/1313Z T20/1322Z FS30135

أرصاد الطقس والتوقعات من أكثر من 4000 مطار (تقارير الطقس للمطار METAR والتنبؤ بالطقس بالمطارTAF).

المحطات المتاحة هي النقط الصفراء والحمراء على الخريطة.

حرك المؤشر فوق النقطة لمعرفة اسم المحطة.

ثم انقر لمعرفة أرصاد وتوقعات الطقس.

لتغيير الخارطة: اضغط على الأزرار الخضراء مع رمز الصليب الأسود للتكبير. على الزر الأخضر مع شرطة للتصغير، أو على الأسهم الخضراء للخرائط المجاورة.


METAR-TAF: